• Join FlightAware (Why Join?)
  • Login
  • US Flag 
09:37PM EST


 

Airport Tracker/Info


-or-


 

Live Flight TrackerFlight Track Log ✈ RPA3152 ✈ 12-May-2013 ✈ KDCA - KBTV

Flight Track Log - Related Links

Times and Time Zones

All times are in EDT time to prevent confusion due to time zone crossing. See the RPA3152 flight status page for this flight to view local times or setup timezone preferences in your user account.

Time Position Orientation Groundspeed Altitude Reporting Facility
EDT Latitude Longitude Course Direction KTS MPH feet Rate Location/Type
10:31PM 38.8833 -77.0667 83° East 152 175 2,300  Level Potomac TRACON
10:33PM 38.9556 -77.1478 319° Northwest 198 228 6,400 2,820 Climbing Washington Center
10:34PM 39.0122 -77.1011 33° Northeast 199 229 9,600 2,700 Climbing Washington Center
10:35PM 39.1192 -76.2616 57° Northeast  Level FlightAware Approximate
10:35PM 39.0306 -76.9783 79° East 225 259 11,800  Level Washington Center
10:36PM 39.1612 -76.1054 83° East  Level FlightAware Approximate
10:36PM 39.0506 -76.8506 79° East 282 325 14,200  Level Washington Center
10:37PM 39.0728 -76.7119 78° East 349 402 16,500 2,040 Climbing Washington Center
10:38PM 39.0950 -76.5678 79° East 386 444 18,400 1,920 Climbing Washington Center
10:39PM 39.1189 -76.4131 79° East 418 481 20,400 1,860 Climbing Washington Center
10:40PM 39.1450 -76.2500 78° East 441 507 22,200 1,260 Climbing Washington Center
10:41PM 39.1731 -76.0575 79° East 482 555 23,000 1,140 Climbing Washington Center
10:42PM 39.2069 -75.8836 76° East 495 570 24,500 1,440 Climbing Washington Center
10:43PM 39.3008 -75.7444 49° Northeast 486 559 25,900 1,320 Climbing Washington Center
10:44PM 39.4031 -75.6131 45° Northeast 496 571 27,200 1,260 Climbing Washington Center
10:45PM 39.5092 -75.4733 45° Northeast 512 589 28,500 1,320 Climbing Washington Center
10:46PM 39.6133 -75.3356 46° Northeast 523 602 29,900 1,140 Climbing Washington Center
10:47PM 39.7169 -75.1922 47° Northeast 533 613 30,900 540 Climbing Washington Center
10:48PM 39.8228 -75.0431 47° Northeast 543 625 31,000  Climbing Washington Center
10:49PM 39.9400 -74.8725 48° Northeast 571 657 31,000  Level New York Center
10:50PM 40.0894 -74.7700 28° Northeast 542 624 31,000  Level New York Center
10:51PM 40.2331 -74.7186 15° North 529 609 31,000  Level New York Center
10:52PM 40.3617 -74.6689 16° North 529 609 31,000  Level New York Center
10:53PM 40.5094 -74.6172 15° North 534 615 31,000  Level New York Center
10:54PM 40.6569 -74.5653 15° North 540 621 31,000  Level New York Center
10:56PM 40.9694 -74.4550 15° North 550 633 31,000  Level Boston Center
10:57PM 41.1414 -74.3914 16° North 537 618 31,000  Level Boston Center
10:58PM 41.2839 -74.3406 15° North 532 612 31,000  Level Boston Center
10:59PM 41.4286 -74.2894 15° North 532 612 31,000  Level Boston Center
11:00PM 41.5753 -74.2383 15° North 537 618 31,000  Level Boston Center
11:01PM 41.7200 -74.1867 15° North 537 618 31,000  Level Boston Center
11:02PM 41.8731 -74.1325 15° North 527 606 31,000  Level Boston Center
11:03PM 42.0175 -74.0803 15° North 522 601 31,000  Level Boston Center
11:04PM 42.1642 -74.0283 15° North 532 612 31,000  Level Boston Center
11:05PM 42.3131 -73.9731 15° North 537 618 31,000  Level Boston Center
11:06PM 42.4575 -73.9203 15° North 537 618 31,000 -600 Level Boston Center
11:07PM 42.5725 -73.8781 15° North 537 618 29,800 -1,680 Descending Boston Center
11:08PM 42.7339 -73.8194 15° North 532 612 27,700 -2,040 Descending Boston Center
11:09PM 42.8742 -73.7661 16° North 532 612 25,800 -1,740 Descending Boston Center
11:11PM 43.0417 -73.7042 15° North 522 601 24,000 -840 Descending Boston Center
11:12PM 43.1922 -73.6419 17° North 510 587 24,000  Level Boston Center
11:13PM 43.3303 -73.5933 14° North 510 587 24,000  Level Boston Center
11:14PM 43.4664 -73.5414 15° North 510 587 24,000 -600 Level Boston Center
11:15PM 43.6294 -73.4814 15° North 510 587 22,700 -1,920 Descending Boston Center
11:16PM 43.7550 -73.4317 16° North 486 559 20,200 -2,700 Descending Boston Center
11:17PM 43.8678 -73.3875 16° North 438 504 17,300 -3,060 Descending Boston Center
11:18PM 43.9764 -73.3458 15° North 412 474 14,100 -2,520 Descending Boston Center
11:19PM 44.0894 -73.3014 16° North 381 438 11,800 -1,800 Descending Boston Center
11:20PM 44.1811 -73.2942 North 343 395 10,200 -1,980 Descending Boston Center
11:21PM 44.2625 -73.2836 North 301 346 7,900 -2,160 Descending Boston Center
11:22PM 44.3375 -73.2906 356° North 271 312 5,900 -2,040 Descending Boston Center
11:23PM 44.4061 -73.3089 349° North 260 299 3,900 -1,440 Descending Boston Center
11:24PM 44.4683 -73.3186 354° North 232 267 3,100 -780 Descending Boston Center
11:25PM 44.5103 -73.2783 34° Northeast 189 217 2,400 -780 Descending Boston Center
11:26PM 44.5169 -73.2261 80° East 141 162 1,600 -840 Descending Boston Center